createdAt,value
2022-11-21T00:01:50.369Z,12.07
2022-11-21T00:04:24.634Z,12.40
2022-11-21T00:06:55.859Z,13.37
2022-11-21T00:09:30.111Z,14.23
2022-11-21T00:11:59.645Z,13.63
2022-11-21T00:14:31.953Z,11.87
2022-11-21T00:17:05.879Z,11.67
2022-11-21T00:19:39.652Z,10.23
2022-11-21T00:22:10.451Z,9.27
2022-11-21T00:24:42.725Z,10.73
2022-11-21T00:27:15.026Z,9.43
2022-11-21T00:29:49.955Z,10.20
2022-11-21T00:32:21.860Z,9.30
2022-11-21T00:34:56.395Z,9.40
2022-11-21T00:37:30.106Z,10.37
2022-11-21T00:40:05.981Z,10.50
2022-11-21T00:42:37.030Z,10.23
2022-11-21T00:45:10.820Z,9.50
2022-11-21T00:48:12.143Z,9.90
2022-11-21T00:50:46.652Z,9.73
2022-11-21T00:53:17.813Z,10.10
2022-11-21T00:55:59.408Z,9.47
2022-11-21T00:58:43.162Z,9.23
2022-11-21T01:01:24.658Z,9.60
2022-11-21T01:04:05.735Z,9.23
2022-11-21T01:06:41.315Z,9.13
2022-11-21T01:09:15.113Z,9.83
2022-11-21T01:11:49.677Z,9.90
2022-11-21T01:14:21.207Z,10.60
2022-11-21T01:17:02.442Z,9.03
2022-11-21T01:19:37.932Z,10.47
2022-11-21T01:22:14.376Z,10.53
2022-11-21T01:24:47.269Z,9.60
2022-11-21T01:27:25.937Z,10.50
2022-11-21T01:30:03.577Z,9.17
2022-11-21T01:32:36.948Z,9.40
2022-11-21T01:35:17.782Z,9.77
2022-11-21T01:38:05.414Z,8.90
2022-11-21T01:41:03.563Z,9.33
2022-11-21T01:43:48.498Z,8.20
2022-11-21T01:46:41.788Z,8.93
2022-11-21T01:49:27.174Z,8.63
2022-11-21T01:52:12.792Z,8.90
2022-11-21T01:54:53.223Z,8.20
2022-11-21T01:57:35.436Z,9.00
2022-11-21T02:00:22.582Z,7.60
2022-11-21T02:03:09.817Z,8.83
2022-11-21T02:06:05.488Z,8.77
2022-11-21T02:08:50.998Z,8.03
2022-11-21T02:11:43.703Z,8.70
2022-11-21T02:14:29.646Z,8.33
2022-11-21T02:17:30.595Z,7.87
2022-11-21T02:20:10.782Z,8.00
2022-11-21T02:22:56.585Z,7.60
2022-11-21T02:25:45.895Z,6.70
2022-11-21T02:28:34.303Z,7.40
2022-11-21T02:31:06.390Z,6.37
2022-11-21T02:33:41.142Z,6.77
2022-11-21T02:36:45.930Z,7.47
2022-11-21T02:39:26.069Z,8.00
2022-11-21T02:42:18.634Z,6.93
2022-11-21T02:44:59.159Z,7.43
2022-11-21T02:47:52.290Z,8.50
2022-11-21T02:50:30.900Z,7.82
2022-11-21T02:53:04.941Z,7.75
2022-11-21T02:55:57.159Z,7.23
2022-11-21T02:58:33.741Z,7.23
2022-11-21T03:01:21.663Z,7.78
2022-11-21T03:03:57.911Z,8.13
2022-11-21T03:06:34.760Z,7.50
2022-11-21T03:09:13.795Z,7.20
2022-11-21T03:11:55.246Z,9.97
2022-11-21T03:14:56.481Z,8.93
2022-11-21T03:17:34.584Z,8.33
2022-11-21T03:20:15.941Z,8.37
2022-11-21T03:23:03.769Z,8.52
2022-11-21T03:25:46.959Z,7.07
2022-11-21T03:28:21.703Z,7.30
2022-11-21T03:30:54.822Z,6.93
2022-11-21T03:33:43.172Z,5.43
2022-11-21T03:36:17.558Z,6.53
2022-11-21T03:38:51.267Z,5.97
2022-11-21T03:41:34.110Z,5.53
2022-11-21T03:44:21.573Z,5.70
2022-11-21T03:46:56.013Z,5.00
2022-11-21T03:49:42.027Z,5.00
2022-11-21T03:52:18.633Z,4.33
2022-11-21T03:55:02.580Z,4.20
2022-11-21T03:57:37.476Z,4.63
2022-11-21T04:00:21.014Z,4.43
2022-11-21T04:03:08.667Z,5.33
2022-11-21T04:05:49.821Z,5.40
2022-11-21T04:08:34.301Z,4.40
2022-11-21T04:13:52.972Z,4.83
2022-11-21T04:16:28.881Z,5.33
2022-11-21T04:19:09.959Z,5.53
2022-11-21T04:22:05.153Z,5.30
2022-11-21T04:24:45.610Z,5.83
2022-11-21T04:30:27.258Z,6.13
2022-11-21T04:33:20.799Z,5.77
2022-11-21T04:36:22.555Z,7.33
2022-11-21T04:38:55.784Z,7.27
2022-11-21T04:41:28.080Z,7.30
2022-11-21T04:44:04.782Z,7.63
2022-11-21T04:46:36.776Z,7.93
2022-11-21T04:49:12.420Z,10.00
2022-11-21T04:51:48.853Z,13.17
2022-11-21T04:54:21.597Z,6.67
2022-11-21T04:56:53.013Z,7.10
2022-11-21T04:59:28.711Z,6.87
2022-11-21T05:02:14.961Z,7.17
2022-11-21T05:04:58.481Z,6.57
2022-11-21T05:07:51.237Z,7.00
2022-11-21T05:10:43.290Z,7.30
2022-11-21T05:13:24.631Z,7.00
2022-11-21T05:16:05.746Z,6.33
2022-11-21T05:18:43.788Z,6.57
2022-11-21T05:21:26.395Z,6.50
2022-11-21T05:24:08.452Z,7.40
2022-11-21T05:26:39.399Z,6.53
2022-11-21T05:29:10.464Z,6.43
2022-11-21T05:31:53.721Z,5.90
2022-11-21T05:34:33.467Z,6.50
2022-11-21T05:37:06.632Z,6.20
2022-11-21T05:39:38.897Z,7.10
2022-11-21T05:42:09.775Z,7.13
2022-11-21T05:44:39.852Z,7.38
2022-11-21T05:47:13.976Z,8.27
2022-11-21T05:49:43.440Z,9.07
2022-11-21T05:52:17.369Z,9.37
2022-11-21T05:54:51.488Z,8.37
2022-11-21T05:57:24.409Z,8.87
2022-11-21T06:00:00.918Z,6.85
2022-11-21T06:02:53.858Z,6.22
2022-11-21T06:05:30.672Z,6.60
2022-11-21T06:08:03.255Z,6.40
2022-11-21T06:10:40.425Z,6.38
2022-11-21T06:13:23.749Z,6.33
2022-11-21T06:16:05.589Z,6.78
2022-11-21T06:18:40.116Z,5.77
2022-11-21T06:21:15.199Z,6.30
2022-11-21T06:23:48.348Z,6.37
2022-11-21T06:26:24.849Z,6.20
2022-11-21T06:28:56.913Z,6.33
2022-11-21T06:31:32.288Z,5.80
2022-11-21T06:34:03.509Z,6.10
2022-11-21T06:36:35.159Z,5.93
2022-11-21T06:39:07.436Z,5.43
2022-11-21T06:41:42.912Z,6.23
2022-11-21T06:44:18.599Z,5.37
2022-11-21T06:46:53.100Z,5.73
2022-11-21T06:49:23.935Z,5.77
2022-11-21T06:51:58.304Z,5.77
2022-11-21T06:54:31.022Z,6.60
2022-11-21T06:57:03.827Z,6.53
2022-11-21T06:59:35.780Z,6.93
2022-11-21T07:02:08.837Z,7.30
2022-11-21T07:04:40.315Z,7.17
2022-11-21T07:07:11.105Z,6.70
2022-11-21T07:09:45.168Z,6.97
2022-11-21T07:12:37.149Z,6.57
2022-11-21T07:15:17.229Z,7.20
2022-11-21T07:17:53.631Z,7.03
2022-11-21T07:20:30.202Z,7.07
2022-11-21T07:23:25.250Z,7.07
2022-11-21T07:26:03.686Z,7.23
2022-11-21T07:28:50.728Z,8.13
2022-11-21T07:31:22.702Z,7.60
2022-11-21T07:33:57.709Z,7.27
2022-11-21T07:36:32.439Z,6.93
2022-11-21T07:39:15.992Z,8.20
2022-11-21T07:41:45.441Z,7.18
2022-11-21T07:44:18.951Z,8.18
2022-11-21T07:46:49.017Z,8.05
2022-11-21T07:49:20.659Z,9.38
2022-11-21T07:51:52.374Z,18.40
2022-11-21T07:54:25.095Z,14.85
2022-11-21T07:56:57.860Z,8.43
2022-11-21T07:59:32.933Z,7.70
2022-11-21T08:02:06.028Z,8.20
2022-11-21T08:04:38.165Z,7.93
2022-11-21T08:07:13.695Z,8.15
2022-11-21T08:09:45.481Z,7.50
2022-11-21T08:12:17.322Z,6.93
2022-11-21T08:14:49.769Z,7.20
2022-11-21T08:17:23.804Z,6.88
2022-11-21T08:19:56.539Z,6.87
2022-11-21T08:22:27.316Z,6.93
2022-11-21T08:25:05.628Z,7.60
2022-11-21T08:27:49.361Z,7.97
2022-11-21T08:30:38.346Z,7.47
2022-11-21T08:33:20.611Z,6.57
2022-11-21T08:36:16.859Z,7.03
2022-11-21T08:38:50.424Z,7.13
2022-11-21T08:41:39.782Z,7.10
2022-11-21T08:44:15.525Z,7.38
2022-11-21T08:46:53.566Z,8.00
2022-11-21T08:49:29.086Z,8.07
2022-11-21T08:52:14.387Z,7.40
2022-11-21T08:54:49.252Z,6.60
2022-11-21T08:57:26.634Z,6.38
2022-11-21T09:00:06.651Z,5.60
2022-11-21T09:02:45.870Z,6.25
2022-11-21T09:05:20.793Z,6.23
2022-11-21T09:07:58.170Z,6.60
2022-11-21T09:10:27.859Z,6.13
2022-11-21T09:13:00.574Z,6.82
2022-11-21T09:15:50.790Z,7.53
2022-11-21T09:18:24.212Z,6.60
2022-11-21T09:20:52.920Z,5.45
2022-11-21T09:23:21.751Z,6.47
2022-11-21T09:25:51.537Z,5.40
2022-11-21T09:28:20.501Z,4.97
2022-11-21T09:30:49.106Z,5.32
2022-11-21T09:33:17.876Z,5.25
2022-11-21T09:35:49.632Z,7.00
2022-11-21T09:38:22.562Z,6.40
2022-11-21T09:40:52.699Z,7.05
2022-11-21T09:43:42.650Z,8.00
2022-11-21T09:46:17.007Z,7.73
2022-11-21T09:48:56.112Z,8.45
2022-11-21T09:51:27.290Z,11.33
2022-11-21T09:54:00.464Z,10.87
2022-11-21T09:56:31.508Z,10.40
2022-11-21T09:59:13.972Z,11.98
2022-11-21T10:01:42.225Z,11.97
2022-11-21T10:04:10.978Z,12.70
2022-11-21T10:06:51.223Z,11.32
2022-11-21T10:09:28.734Z,10.95
2022-11-21T10:12:21.241Z,11.63
2022-11-21T10:15:03.460Z,10.60
2022-11-21T10:17:46.208Z,10.93
2022-11-21T10:20:29.236Z,9.10
2022-11-21T10:23:25.206Z,9.25
2022-11-21T10:25:58.461Z,10.23
2022-11-21T10:28:36.752Z,10.35
2022-11-21T10:31:09.630Z,10.48
2022-11-21T10:33:40.394Z,10.65
2022-11-21T10:36:20.729Z,9.63
2022-11-21T10:38:52.092Z,9.00
2022-11-21T10:41:26.873Z,9.48
2022-11-21T10:44:22.938Z,9.10
2022-11-21T10:46:57.687Z,8.82
2022-11-21T10:49:30.085Z,9.45
2022-11-21T10:52:06.662Z,11.00
2022-11-21T10:55:10.494Z,9.82
2022-11-21T10:57:44.582Z,12.18
2022-11-21T11:00:23.364Z,13.35
2022-11-21T11:03:05.576Z,11.13
2022-11-21T11:05:36.186Z,9.35
2022-11-21T11:08:09.296Z,10.65
2022-11-21T11:10:41.660Z,10.80
2022-11-21T11:13:46.292Z,10.63
2022-11-21T11:16:18.363Z,11.02
2022-11-21T11:18:52.767Z,10.27
2022-11-21T11:21:23.191Z,12.18
2022-11-21T11:23:53.512Z,13.15
2022-11-21T11:26:27.531Z,13.05
2022-11-21T11:29:10.152Z,12.98
2022-11-21T11:31:43.456Z,13.95
2022-11-21T11:34:15.056Z,12.98
2022-11-21T11:37:07.339Z,13.23
2022-11-21T11:39:41.071Z,11.83
2022-11-21T11:43:05.389Z,12.33
2022-11-21T11:46:09.834Z,12.27
2022-11-21T11:48:56.521Z,13.33
2022-11-21T11:51:36.090Z,13.57
2022-11-21T11:54:11.765Z,13.05
2022-11-21T11:56:40.892Z,12.90
2022-11-21T11:59:17.820Z,12.20
2022-11-21T12:01:51.379Z,12.47
2022-11-21T12:04:21.898Z,13.38
2022-11-21T12:09:52.542Z,13.00
2022-11-21T12:12:39.040Z,13.30
2022-11-21T12:15:34.058Z,12.87
2022-11-21T12:18:14.499Z,13.00
2022-11-21T12:20:53.187Z,11.90
2022-11-21T12:23:25.026Z,13.47
2022-11-21T12:26:06.204Z,12.77
2022-11-21T12:28:43.739Z,12.90
2022-11-21T12:31:18.072Z,12.17
2022-11-21T12:33:55.543Z,12.30
2022-11-21T12:36:36.756Z,11.80
2022-11-21T12:39:44.903Z,12.63
2022-11-21T12:42:39.392Z,12.13
2022-11-21T12:45:27.275Z,13.20
2022-11-21T12:48:38.169Z,11.07
2022-11-21T12:51:46.020Z,12.83
2022-11-21T12:54:45.668Z,11.63
2022-11-21T12:57:15.209Z,12.10
2022-11-21T12:59:59.201Z,12.23
2022-11-21T13:02:35.594Z,13.30
2022-11-21T13:05:10.169Z,12.90
2022-11-21T13:07:40.832Z,14.90
2022-11-21T13:10:16.045Z,12.03
2022-11-21T13:12:49.312Z,12.87
2022-11-21T13:15:27.389Z,12.07
2022-11-21T13:17:59.988Z,12.60
2022-11-21T13:20:34.452Z,12.67
2022-11-21T13:23:06.381Z,12.87
2022-11-21T13:25:43.327Z,13.07
2022-11-21T13:28:43.779Z,13.93
2022-11-21T13:31:33.636Z,13.87
2022-11-21T13:34:03.445Z,14.40
2022-11-21T13:36:44.045Z,13.37
2022-11-21T13:39:38.883Z,12.13
2022-11-21T13:42:29.432Z,12.17
2022-11-21T13:44:58.575Z,12.17
2022-11-21T13:48:05.158Z,13.67
2022-11-21T13:50:50.138Z,12.65
2022-11-21T13:53:51.299Z,11.75
2022-11-21T13:56:37.129Z,11.23
2022-11-21T13:59:26.130Z,11.05
2022-11-21T14:02:14.538Z,13.85
2022-11-21T14:05:18.293Z,11.73
2022-11-21T14:07:48.050Z,13.20
2022-11-21T14:10:33.664Z,12.63
2022-11-21T14:13:04.352Z,11.85
2022-11-21T14:15:41.466Z,11.93
2022-11-21T14:18:21.365Z,13.40
2022-11-21T14:20:53.819Z,13.38
2022-11-21T14:23:24.596Z,10.90
2022-11-21T14:25:57.605Z,11.48
2022-11-21T14:28:29.897Z,10.13
2022-11-21T14:30:59.518Z,9.63
2022-11-21T14:33:30.602Z,11.38
2022-11-21T14:36:03.154Z,11.80
2022-11-21T14:38:36.324Z,12.23
2022-11-21T14:41:31.981Z,10.97
2022-11-21T14:44:18.725Z,11.35
2022-11-21T14:46:48.908Z,10.95
2022-11-21T14:49:23.862Z,12.63
2022-11-21T14:51:58.552Z,12.90
2022-11-21T14:54:30.714Z,12.20
2022-11-21T14:57:03.036Z,12.75
2022-11-21T14:59:33.466Z,13.38
2022-11-21T15:02:04.598Z,12.70
2022-11-21T15:04:35.702Z,11.90
2022-11-21T15:07:05.247Z,12.15
2022-11-21T15:12:29.280Z,12.82
2022-11-21T15:15:00.864Z,12.40
2022-11-21T15:17:30.665Z,13.57
2022-11-21T15:20:17.633Z,13.40
2022-11-21T15:22:49.063Z,13.33
2022-11-21T15:25:20.427Z,13.83
2022-11-21T15:27:51.886Z,14.97
2022-11-21T15:30:24.588Z,14.70
2022-11-21T15:33:06.456Z,14.03
2022-11-21T15:35:49.035Z,14.37
2022-11-21T15:38:28.788Z,13.87
2022-11-21T15:41:29.313Z,14.97
2022-11-21T15:44:21.206Z,16.00
2022-11-21T15:46:54.852Z,15.23
2022-11-21T15:49:33.238Z,14.73
2022-11-21T15:52:09.934Z,13.40
2022-11-21T15:54:38.392Z,14.27
2022-11-21T15:57:06.850Z,14.77
2022-11-21T15:59:38.611Z,15.43
2022-11-21T16:02:07.501Z,15.80
2022-11-21T16:04:35.934Z,16.50
2022-11-21T16:07:04.179Z,15.57
2022-11-21T16:09:32.413Z,16.80
2022-11-21T16:12:00.800Z,15.80
2022-11-21T16:14:29.694Z,14.17
2022-11-21T16:17:00.580Z,14.47
2022-11-21T16:19:31.792Z,14.03
2022-11-21T16:22:00.565Z,13.53
2022-11-21T16:24:29.505Z,14.30
2022-11-21T16:26:57.731Z,13.47
2022-11-21T16:29:26.034Z,13.10
2022-11-21T16:31:55.949Z,12.97
2022-11-21T16:34:30.060Z,12.70
2022-11-21T16:37:05.809Z,14.67
2022-11-21T16:39:35.826Z,14.80
2022-11-21T16:42:04.785Z,15.63
2022-11-21T16:44:33.855Z,15.27
2022-11-21T16:47:08.130Z,15.15
2022-11-21T16:49:43.044Z,17.87
2022-11-21T16:52:11.933Z,15.97
2022-11-21T16:54:41.174Z,16.37
2022-11-21T16:57:11.271Z,15.53
2022-11-21T16:59:40.004Z,16.87
2022-11-21T17:02:08.501Z,15.27
2022-11-21T17:04:39.480Z,14.57
2022-11-21T17:07:08.072Z,16.50
2022-11-21T17:09:36.291Z,15.03
2022-11-21T17:12:04.820Z,16.77
2022-11-21T17:14:33.151Z,16.40
2022-11-21T17:17:01.705Z,17.43
2022-11-21T17:19:30.031Z,18.27
2022-11-21T17:22:01.402Z,17.17
2022-11-21T17:24:29.845Z,17.57
2022-11-21T17:27:00.549Z,18.37
2022-11-21T17:29:30.824Z,18.63
2022-11-21T17:32:01.149Z,16.70
2022-11-21T17:34:33.179Z,17.93
2022-11-21T17:37:03.706Z,17.77
2022-11-21T17:39:33.171Z,19.83
2022-11-21T17:42:03.597Z,19.30
2022-11-21T17:44:33.496Z,19.20
2022-11-21T17:47:02.106Z,19.17
2022-11-21T17:49:37.014Z,19.73
2022-11-21T17:52:08.631Z,20.90
2022-11-21T17:54:37.360Z,18.83
2022-11-21T17:57:05.638Z,19.55
2022-11-21T17:59:34.665Z,20.83
2022-11-21T18:02:03.408Z,20.50
2022-11-21T18:04:32.107Z,20.20
2022-11-21T18:07:03.276Z,19.57
2022-11-21T18:09:32.946Z,20.13
2022-11-21T18:12:01.646Z,19.93
2022-11-21T18:14:31.786Z,19.47
2022-11-21T18:17:00.206Z,20.07
2022-11-21T18:19:30.002Z,19.13
2022-11-21T18:22:00.289Z,19.30
2022-11-21T18:24:30.170Z,20.13
2022-11-21T18:27:01.550Z,18.80
2022-11-21T18:29:37.145Z,19.20
2022-11-21T18:32:07.354Z,20.43
2022-11-21T18:34:37.990Z,20.10
2022-11-21T18:37:06.856Z,19.47
2022-11-21T18:39:36.233Z,20.13
2022-11-21T18:42:07.104Z,20.37
2022-11-21T18:44:37.288Z,19.53
2022-11-21T18:47:19.781Z,19.77
2022-11-21T18:49:49.387Z,18.70
2022-11-21T18:52:17.730Z,21.23
2022-11-21T18:54:47.022Z,20.13
2022-11-21T18:57:17.997Z,19.93
2022-11-21T18:59:47.543Z,21.13
2022-11-21T19:02:16.911Z,20.07
2022-11-21T19:04:45.556Z,19.33
2022-11-21T19:07:13.775Z,20.70
2022-11-21T19:09:42.338Z,22.20
2022-11-21T19:12:10.930Z,20.43
2022-11-21T19:14:41.502Z,22.73
2022-11-21T19:17:09.759Z,22.35
2022-11-21T19:19:40.315Z,20.77
2022-11-21T19:22:09.669Z,22.30
2022-11-21T19:24:38.336Z,25.27
2022-11-21T19:27:09.697Z,23.67
2022-11-21T19:29:41.435Z,23.87
2022-11-21T19:32:10.139Z,22.27
2022-11-21T19:34:40.219Z,20.83
2022-11-21T19:37:10.713Z,21.63
2022-11-21T19:39:41.252Z,22.50
2022-11-21T19:42:09.525Z,23.20
2022-11-21T19:44:37.712Z,22.83
2022-11-21T19:47:07.318Z,23.27
2022-11-21T19:49:35.580Z,20.90
2022-11-21T19:52:03.973Z,21.50
2022-11-21T19:54:32.349Z,21.40
2022-11-21T19:57:00.806Z,20.67
2022-11-21T19:59:31.458Z,22.43
2022-11-21T20:02:01.767Z,21.80
2022-11-21T20:04:32.126Z,21.50
2022-11-21T20:07:04.917Z,22.40
2022-11-21T20:09:37.066Z,23.97
2022-11-21T20:12:09.829Z,21.87
2022-11-21T20:14:38.355Z,20.73
2022-11-21T20:17:06.922Z,22.00
2022-11-21T20:19:36.651Z,21.87
2022-11-21T20:22:05.940Z,20.03
2022-11-21T20:24:41.137Z,21.10
2022-11-21T20:27:11.522Z,19.53
2022-11-21T20:29:39.800Z,20.13
2022-11-21T20:32:08.160Z,20.00
2022-11-21T20:34:42.353Z,20.15
2022-11-21T20:37:13.299Z,19.93
2022-11-21T20:39:42.678Z,19.20
2022-11-21T20:42:11.620Z,19.50
2022-11-21T20:47:29.714Z,18.80
2022-11-21T20:50:00.181Z,20.53
2022-11-21T20:53:49.583Z,18.73
2022-11-21T20:55:17.321Z,18.80
2022-11-21T20:57:45.579Z,17.50
2022-11-21T21:00:16.029Z,18.67
2022-11-21T21:02:44.895Z,19.60
2022-11-21T21:05:14.782Z,19.87
2022-11-21T21:07:43.955Z,19.00
2022-11-21T21:10:15.837Z,18.33
2022-11-21T21:12:48.644Z,18.50
2022-11-21T21:15:17.555Z,17.60
2022-11-21T21:17:46.732Z,17.53
2022-11-21T21:20:16.704Z,19.30
2022-11-21T21:22:45.450Z,17.77
2022-11-21T21:25:14.378Z,19.17
2022-11-21T21:27:42.755Z,18.60
2022-11-21T21:30:12.567Z,17.97
2022-11-21T21:32:42.073Z,16.93
2022-11-21T21:35:11.111Z,17.73
2022-11-21T21:37:40.810Z,17.30
2022-11-21T21:40:10.374Z,19.30
2022-11-21T21:42:41.493Z,17.90
2022-11-21T21:45:11.258Z,17.40
2022-11-21T21:47:39.451Z,15.73
2022-11-21T21:50:15.652Z,18.20
2022-11-21T21:52:46.176Z,16.37
2022-11-21T21:55:14.454Z,15.70
2022-11-21T21:57:48.266Z,16.35
2022-11-21T22:00:19.531Z,18.70
2022-11-21T22:02:47.826Z,15.93
2022-11-21T22:05:16.477Z,15.40
2022-11-21T22:07:47.003Z,12.85
2022-11-21T22:10:17.379Z,14.48
2022-11-21T22:12:49.103Z,13.93
2022-11-21T22:15:17.847Z,14.73
2022-11-21T22:17:46.140Z,13.33
2022-11-21T22:20:15.325Z,14.60
2022-11-21T22:22:43.905Z,13.70
2022-11-21T22:25:13.565Z,13.80
2022-11-21T22:27:43.119Z,13.67
2022-11-21T22:30:14.401Z,13.83
2022-11-21T22:32:42.608Z,14.73
2022-11-21T22:35:10.912Z,15.97
2022-11-21T22:37:39.840Z,14.20
2022-11-21T22:40:10.101Z,13.57
2022-11-21T22:42:39.753Z,14.17
2022-11-21T22:45:09.258Z,13.70
2022-11-21T22:47:47.932Z,13.87
2022-11-21T22:50:17.132Z,13.00
2022-11-21T22:52:45.806Z,13.20
2022-11-21T22:55:15.527Z,13.17
2022-11-21T22:57:45.151Z,13.87
2022-11-21T23:00:18.782Z,13.67
2022-11-21T23:02:52.574Z,14.07
2022-11-21T23:05:20.810Z,12.33
2022-11-21T23:07:49.033Z,14.63
2022-11-21T23:10:18.613Z,11.83
2022-11-21T23:12:49.703Z,14.63
2022-11-21T23:15:18.667Z,13.93
2022-11-21T23:17:52.273Z,14.97
2022-11-21T23:20:22.452Z,14.33
2022-11-21T23:22:51.252Z,14.70
2022-11-21T23:25:20.982Z,17.07
2022-11-21T23:27:50.920Z,15.43
2022-11-21T23:30:19.947Z,15.83
2022-11-21T23:32:48.137Z,14.80
2022-11-21T23:35:16.633Z,14.00
2022-11-21T23:37:47.587Z,14.73
2022-11-21T23:40:17.602Z,14.83
2022-11-21T23:42:47.178Z,16.57
2022-11-21T23:45:17.946Z,14.77
2022-11-21T23:47:46.179Z,14.83
2022-11-21T23:50:15.418Z,13.70
2022-11-21T23:52:43.670Z,13.30
2022-11-21T23:55:13.521Z,13.70
2022-11-21T23:57:48.782Z,14.70
